sensor_id;sensor_type;location;lat;lon;timestamp;P1;durP1;ratioP1;P2;durP2;ratioP2
25127;SDS011;13107;51.304;6.866;2023-04-24T00:01:21;1.75;;;0.50;;
25127;SDS011;13107;51.304;6.866;2023-04-24T00:05:23;1.62;;;0.62;;
25127;SDS011;13107;51.304;6.866;2023-04-24T00:09:25;1.35;;;0.60;;
25127;SDS011;13107;51.304;6.866;2023-04-24T00:13:27;2.75;;;0.70;;
25127;SDS011;13107;51.304;6.866;2023-04-24T00:17:32;1.70;;;0.70;;
25127;SDS011;13107;51.304;6.866;2023-04-24T00:21:33;1.00;;;0.70;;
25127;SDS011;13107;51.304;6.866;2023-04-24T00:25:35;1.92;;;0.80;;
25127;SDS011;13107;51.304;6.866;2023-04-24T00:29:37;1.20;;;0.70;;
25127;SDS011;13107;51.304;6.866;2023-04-24T00:33:39;2.47;;;1.17;;
25127;SDS011;13107;51.304;6.866;2023-04-24T00:37:41;1.62;;;0.90;;
25127;SDS011;13107;51.304;6.866;2023-04-24T00:41:43;3.37;;;1.42;;
25127;SDS011;13107;51.304;6.866;2023-04-24T00:45:44;1.73;;;1.08;;
25127;SDS011;13107;51.304;6.866;2023-04-24T00:49:47;2.72;;;1.08;;
25127;SDS011;13107;51.304;6.866;2023-04-24T00:53:49;1.62;;;0.98;;
25127;SDS011;13107;51.304;6.866;2023-04-24T00:57:50;2.00;;;1.30;;
25127;SDS011;13107;51.304;6.866;2023-04-24T01:01:52;3.90;;;1.50;;
25127;SDS011;13107;51.304;6.866;2023-04-24T01:05:54;2.08;;;1.45;;
25127;SDS011;13107;51.304;6.866;2023-04-24T01:09:57;3.65;;;2.00;;
25127;SDS011;13107;51.304;6.866;2023-04-24T01:13:58;2.72;;;1.62;;
25127;SDS011;13107;51.304;6.866;2023-04-24T01:18:01;3.15;;;1.40;;
25127;SDS011;13107;51.304;6.866;2023-04-24T01:22:08;2.97;;;1.50;;
25127;SDS011;13107;51.304;6.866;2023-04-24T01:26:16;3.55;;;1.75;;
25127;SDS011;13107;51.304;6.866;2023-04-24T01:30:21;2.42;;;1.90;;
25127;SDS011;13107;51.304;6.866;2023-04-24T01:34:22;8.10;;;2.65;;
25127;SDS011;13107;51.304;6.866;2023-04-24T01:38:24;5.07;;;2.87;;
25127;SDS011;13107;51.304;6.866;2023-04-24T01:42:26;5.37;;;3.03;;
25127;SDS011;13107;51.304;6.866;2023-04-24T01:46:28;6.90;;;3.85;;
25127;SDS011;13107;51.304;6.866;2023-04-24T01:50:30;6.93;;;4.72;;
25127;SDS011;13107;51.304;6.866;2023-04-24T01:54:32;8.43;;;5.18;;
25127;SDS011;13107;51.304;6.866;2023-04-24T01:58:34;8.05;;;5.20;;
25127;SDS011;13107;51.304;6.866;2023-04-24T02:02:37;9.98;;;5.47;;
25127;SDS011;13107;51.304;6.866;2023-04-24T02:06:40;9.32;;;5.35;;
25127;SDS011;13107;51.304;6.866;2023-04-24T02:10:42;12.85;;;6.30;;
25127;SDS011;13107;51.304;6.866;2023-04-24T02:14:43;8.77;;;6.30;;
25127;SDS011;13107;51.304;6.866;2023-04-24T02:18:45;10.32;;;6.07;;
25127;SDS011;13107;51.304;6.866;2023-04-24T02:22:47;10.57;;;6.70;;
25127;SDS011;13107;51.304;6.866;2023-04-24T02:26:49;11.90;;;7.65;;
25127;SDS011;13107;51.304;6.866;2023-04-24T02:30:50;11.60;;;7.50;;
25127;SDS011;13107;51.304;6.866;2023-04-24T02:34:52;11.55;;;7.22;;
25127;SDS011;13107;51.304;6.866;2023-04-24T02:38:54;11.35;;;7.10;;
25127;SDS011;13107;51.304;6.866;2023-04-24T02:42:55;12.93;;;7.40;;
25127;SDS011;13107;51.304;6.866;2023-04-24T02:46:57;12.10;;;7.72;;
25127;SDS011;13107;51.304;6.866;2023-04-24T02:50:59;12.30;;;8.55;;
25127;SDS011;13107;51.304;6.866;2023-04-24T02:55:01;12.98;;;8.50;;
25127;SDS011;13107;51.304;6.866;2023-04-24T02:59:03;12.32;;;8.07;;
25127;SDS011;13107;51.304;6.866;2023-04-24T03:03:04;13.85;;;8.18;;
25127;SDS011;13107;51.304;6.866;2023-04-24T03:07:06;13.82;;;8.27;;
25127;SDS011;13107;51.304;6.866;2023-04-24T03:11:08;13.15;;;8.13;;
25127;SDS011;13107;51.304;6.866;2023-04-24T03:15:10;15.07;;;8.82;;
25127;SDS011;13107;51.304;6.866;2023-04-24T03:19:11;14.48;;;8.77;;
25127;SDS011;13107;51.304;6.866;2023-04-24T03:23:13;11.07;;;7.80;;
25127;SDS011;13107;51.304;6.866;2023-04-24T03:27:16;13.90;;;9.00;;
25127;SDS011;13107;51.304;6.866;2023-04-24T03:31:17;13.38;;;8.35;;
25127;SDS011;13107;51.304;6.866;2023-04-24T03:35:22;14.85;;;8.48;;
25127;SDS011;13107;51.304;6.866;2023-04-24T03:39:24;11.68;;;8.27;;
25127;SDS011;13107;51.304;6.866;2023-04-24T03:43:26;10.23;;;7.70;;
25127;SDS011;13107;51.304;6.866;2023-04-24T03:47:28;14.77;;;7.80;;
25127;SDS011;13107;51.304;6.866;2023-04-24T03:51:30;10.90;;;7.22;;
25127;SDS011;13107;51.304;6.866;2023-04-24T03:55:32;12.88;;;8.50;;
25127;SDS011;13107;51.304;6.866;2023-04-24T03:59:34;16.90;;;8.55;;
25127;SDS011;13107;51.304;6.866;2023-04-24T04:03:36;14.65;;;7.28;;
25127;SDS011;13107;51.304;6.866;2023-04-24T04:07:38;11.65;;;7.60;;
25127;SDS011;13107;51.304;6.866;2023-04-24T04:11:39;12.82;;;7.80;;
25127;SDS011;13107;51.304;6.866;2023-04-24T04:15:41;10.23;;;7.65;;
25127;SDS011;13107;51.304;6.866;2023-04-24T04:19:43;12.40;;;7.70;;
25127;SDS011;13107;51.304;6.866;2023-04-24T04:23:45;11.70;;;8.05;;
25127;SDS011;13107;51.304;6.866;2023-04-24T04:27:46;15.10;;;9.00;;
25127;SDS011;13107;51.304;6.866;2023-04-24T04:31:52;14.10;;;7.95;;
25127;SDS011;13107;51.304;6.866;2023-04-24T04:35:53;13.65;;;7.82;;
25127;SDS011;13107;51.304;6.866;2023-04-24T04:39:57;11.40;;;8.20;;
25127;SDS011;13107;51.304;6.866;2023-04-24T04:43:59;11.48;;;7.00;;
25127;SDS011;13107;51.304;6.866;2023-04-24T04:48:01;10.30;;;7.65;;
25127;SDS011;13107;51.304;6.866;2023-04-24T04:52:04;14.50;;;7.37;;
25127;SDS011;13107;51.304;6.866;2023-04-24T04:56:06;11.23;;;7.00;;
25127;SDS011;13107;51.304;6.866;2023-04-24T05:00:08;15.48;;;6.57;;
25127;SDS011;13107;51.304;6.866;2023-04-24T05:04:11;12.65;;;7.05;;
25127;SDS011;13107;51.304;6.866;2023-04-24T05:08:13;11.63;;;6.78;;
25127;SDS011;13107;51.304;6.866;2023-04-24T05:12:18;9.73;;;7.78;;
25127;SDS011;13107;51.304;6.866;2023-04-24T05:16:20;9.35;;;8.18;;
25127;SDS011;13107;51.304;6.866;2023-04-24T05:20:22;12.30;;;8.32;;
25127;SDS011;13107;51.304;6.866;2023-04-24T05:24:24;10.68;;;7.70;;
25127;SDS011;13107;51.304;6.866;2023-04-24T05:28:26;10.82;;;8.65;;
25127;SDS011;13107;51.304;6.866;2023-04-24T05:32:30;12.07;;;8.25;;
25127;SDS011;13107;51.304;6.866;2023-04-24T05:36:32;13.23;;;8.50;;
25127;SDS011;13107;51.304;6.866;2023-04-24T05:40:33;11.85;;;7.93;;
25127;SDS011;13107;51.304;6.866;2023-04-24T05:44:35;11.20;;;8.05;;
25127;SDS011;13107;51.304;6.866;2023-04-24T05:48:37;10.63;;;8.30;;
25127;SDS011;13107;51.304;6.866;2023-04-24T05:52:38;11.00;;;8.07;;
25127;SDS011;13107;51.304;6.866;2023-04-24T05:56:40;11.55;;;8.07;;
25127;SDS011;13107;51.304;6.866;2023-04-24T06:00:43;13.23;;;7.87;;
25127;SDS011;13107;51.304;6.866;2023-04-24T06:04:47;9.98;;;6.18;;
25127;SDS011;13107;51.304;6.866;2023-04-24T06:08:49;10.93;;;6.72;;
25127;SDS011;13107;51.304;6.866;2023-04-24T06:12:51;10.82;;;7.50;;
25127;SDS011;13107;51.304;6.866;2023-04-24T06:16:52;11.27;;;7.05;;
25127;SDS011;13107;51.304;6.866;2023-04-24T06:20:54;11.48;;;7.55;;
25127;SDS011;13107;51.304;6.866;2023-04-24T06:24:56;12.95;;;7.93;;
25127;SDS011;13107;51.304;6.866;2023-04-24T06:28:58;10.15;;;7.20;;
25127;SDS011;13107;51.304;6.866;2023-04-24T06:33:01;12.00;;;7.70;;
25127;SDS011;13107;51.304;6.866;2023-04-24T06:37:22;10.70;;;7.82;;
25127;SDS011;13107;51.304;6.866;2023-04-24T06:41:24;10.30;;;7.25;;
25127;SDS011;13107;51.304;6.866;2023-04-24T06:45:26;8.73;;;6.18;;
25127;SDS011;13107;51.304;6.866;2023-04-24T06:49:27;10.52;;;6.57;;
25127;SDS011;13107;51.304;6.866;2023-04-24T06:53:29;7.57;;;6.00;;
25127;SDS011;13107;51.304;6.866;2023-04-24T06:57:31;8.05;;;5.50;;
25127;SDS011;13107;51.304;6.866;2023-04-24T07:01:33;10.25;;;6.60;;
25127;SDS011;13107;51.304;6.866;2023-04-24T07:05:34;9.52;;;5.45;;
25127;SDS011;13107;51.304;6.866;2023-04-24T07:09:38;6.43;;;4.25;;
25127;SDS011;13107;51.304;6.866;2023-04-24T07:13:42;6.07;;;5.15;;
25127;SDS011;13107;51.304;6.866;2023-04-24T07:17:45;5.87;;;4.05;;
25127;SDS011;13107;51.304;6.866;2023-04-24T07:21:46;7.22;;;4.40;;
25127;SDS011;13107;51.304;6.866;2023-04-24T07:25:48;5.07;;;3.65;;
25127;SDS011;13107;51.304;6.866;2023-04-24T07:29:50;6.40;;;3.83;;
25127;SDS011;13107;51.304;6.866;2023-04-24T07:33:51;5.68;;;3.72;;
25127;SDS011;13107;51.304;6.866;2023-04-24T07:37:53;3.42;;;2.20;;
25127;SDS011;13107;51.304;6.866;2023-04-24T07:41:55;4.95;;;2.28;;
25127;SDS011;13107;51.304;6.866;2023-04-24T07:45:56;1.62;;;1.05;;
25127;SDS011;13107;51.304;6.866;2023-04-24T07:49:58;1.27;;;0.80;;
25127;SDS011;13107;51.304;6.866;2023-04-24T07:54:00;1.12;;;0.45;;
25127;SDS011;13107;51.304;6.866;2023-04-24T07:58:02;0.60;;;0.30;;
25127;SDS011;13107;51.304;6.866;2023-04-24T08:02:04;2.50;;;0.60;;
25127;SDS011;13107;51.304;6.866;2023-04-24T08:06:07;0.80;;;0.47;;
25127;SDS011;13107;51.304;6.866;2023-04-24T08:10:10;1.12;;;0.62;;
25127;SDS011;13107;51.304;6.866;2023-04-24T08:14:12;0.60;;;0.55;;
25127;SDS011;13107;51.304;6.866;2023-04-24T08:18:15;1.50;;;0.73;;
25127;SDS011;13107;51.304;6.866;2023-04-24T08:22:17;3.30;;;1.10;;
25127;SDS011;13107;51.304;6.866;2023-04-24T08:26:19;4.28;;;0.98;;
25127;SDS011;13107;51.304;6.866;2023-04-24T08:30:21;1.67;;;1.10;;
25127;SDS011;13107;51.304;6.866;2023-04-24T08:34:23;2.58;;;1.50;;
25127;SDS011;13107;51.304;6.866;2023-04-24T08:38:24;2.20;;;1.23;;
25127;SDS011;13107;51.304;6.866;2023-04-24T08:42:26;3.42;;;0.80;;
25127;SDS011;13107;51.304;6.866;2023-04-24T08:46:30;1.60;;;0.90;;
25127;SDS011;13107;51.304;6.866;2023-04-24T08:50:32;1.40;;;0.90;;
25127;SDS011;13107;51.304;6.866;2023-04-24T08:54:37;2.40;;;1.00;;
25127;SDS011;13107;51.304;6.866;2023-04-24T08:58:40;3.42;;;0.93;;
25127;SDS011;13107;51.304;6.866;2023-04-24T09:02:42;2.80;;;0.80;;
25127;SDS011;13107;51.304;6.866;2023-04-24T09:06:45;1.25;;;0.93;;
25127;SDS011;13107;51.304;6.866;2023-04-24T09:10:47;3.30;;;2.08;;
25127;SDS011;13107;51.304;6.866;2023-04-24T09:14:51;6.50;;;3.58;;
25127;SDS011;13107;51.304;6.866;2023-04-24T09:18:54;4.85;;;3.17;;
25127;SDS011;13107;51.304;6.866;2023-04-24T09:22:57;10.90;;;3.67;;
25127;SDS011;13107;51.304;6.866;2023-04-24T09:26:59;6.82;;;4.85;;
25127;SDS011;13107;51.304;6.866;2023-04-24T09:31:03;7.68;;;5.37;;
25127;SDS011;13107;51.304;6.866;2023-04-24T09:35:11;7.25;;;4.70;;
25127;SDS011;13107;51.304;6.866;2023-04-24T09:39:15;6.50;;;4.53;;
25127;SDS011;13107;51.304;6.866;2023-04-24T09:43:17;7.62;;;5.05;;
25127;SDS011;13107;51.304;6.866;2023-04-24T09:47:19;7.75;;;4.57;;
25127;SDS011;13107;51.304;6.866;2023-04-24T09:51:34;9.30;;;5.87;;
25127;SDS011;13107;51.304;6.866;2023-04-24T09:55:42;10.40;;;5.78;;
25127;SDS011;13107;51.304;6.866;2023-04-24T09:59:46;10.48;;;5.70;;
25127;SDS011;13107;51.304;6.866;2023-04-24T10:03:48;10.70;;;6.40;;
25127;SDS011;13107;51.304;6.866;2023-04-24T10:07:50;9.98;;;5.95;;
25127;SDS011;13107;51.304;6.866;2023-04-24T10:11:53;8.57;;;5.93;;
25127;SDS011;13107;51.304;6.866;2023-04-24T10:15:56;12.27;;;5.62;;
25127;SDS011;13107;51.304;6.866;2023-04-24T10:19:58;17.77;;;6.25;;
25127;SDS011;13107;51.304;6.866;2023-04-24T10:24:01;13.68;;;4.80;;
25127;SDS011;13107;51.304;6.866;2023-04-24T10:28:06;10.93;;;4.68;;
25127;SDS011;13107;51.304;6.866;2023-04-24T10:32:11;9.73;;;4.30;;
25127;SDS011;13107;51.304;6.866;2023-04-24T10:36:13;11.80;;;4.72;;
25127;SDS011;13107;51.304;6.866;2023-04-24T10:40:19;9.35;;;4.05;;
25127;SDS011;13107;51.304;6.866;2023-04-24T10:44:35;9.18;;;3.95;;
25127;SDS011;13107;51.304;6.866;2023-04-24T10:48:44;12.37;;;3.40;;
25127;SDS011;13107;51.304;6.866;2023-04-24T10:53:06;11.48;;;4.70;;
25127;SDS011;13107;51.304;6.866;2023-04-24T11:01:24;12.07;;;4.30;;
25127;SDS011;13107;51.304;6.866;2023-04-24T11:09:59;12.05;;;4.53;;
25127;SDS011;13107;51.304;6.866;2023-04-24T11:14:03;10.43;;;5.97;;
25127;SDS011;13107;51.304;6.866;2023-04-24T11:18:15;15.90;;;6.68;;
25127;SDS011;13107;51.304;6.866;2023-04-24T11:22:17;13.32;;;5.65;;
25127;SDS011;13107;51.304;6.866;2023-04-24T11:26:21;13.05;;;5.95;;
25127;SDS011;13107;51.304;6.866;2023-04-24T11:30:29;11.02;;;4.78;;
25127;SDS011;13107;51.304;6.866;2023-04-24T11:34:31;13.00;;;4.10;;
25127;SDS011;13107;51.304;6.866;2023-04-24T11:38:33;13.18;;;4.62;;
25127;SDS011;13107;51.304;6.866;2023-04-24T11:42:44;10.70;;;3.47;;
25127;SDS011;13107;51.304;6.866;2023-04-24T11:46:50;7.78;;;2.60;;
25127;SDS011;13107;51.304;6.866;2023-04-24T11:50:52;4.90;;;2.80;;
25127;SDS011;13107;51.304;6.866;2023-04-24T11:54:53;14.52;;;3.40;;
25127;SDS011;13107;51.304;6.866;2023-04-24T11:58:55;8.52;;;3.08;;
25127;SDS011;13107;51.304;6.866;2023-04-24T12:03:04;7.87;;;3.20;;
25127;SDS011;13107;51.304;6.866;2023-04-24T12:07:10;8.55;;;2.87;;
25127;SDS011;13107;51.304;6.866;2023-04-24T12:11:14;14.75;;;3.10;;
25127;SDS011;13107;51.304;6.866;2023-04-24T12:15:17;13.10;;;3.90;;
25127;SDS011;13107;51.304;6.866;2023-04-24T12:19:23;6.75;;;2.20;;
25127;SDS011;13107;51.304;6.866;2023-04-24T12:23:34;5.05;;;2.25;;
25127;SDS011;13107;51.304;6.866;2023-04-24T12:27:39;9.55;;;2.60;;
25127;SDS011;13107;51.304;6.866;2023-04-24T12:31:41;6.82;;;2.53;;
25127;SDS011;13107;51.304;6.866;2023-04-24T12:35:43;8.45;;;2.03;;
25127;SDS011;13107;51.304;6.866;2023-04-24T12:39:57;7.65;;;2.25;;
25127;SDS011;13107;51.304;6.866;2023-04-24T12:44:03;9.57;;;2.20;;
25127;SDS011;13107;51.304;6.866;2023-04-24T12:48:11;7.57;;;1.65;;
25127;SDS011;13107;51.304;6.866;2023-04-24T12:52:15;8.90;;;1.92;;
25127;SDS011;13107;51.304;6.866;2023-04-24T12:56:18;6.50;;;1.67;;
25127;SDS011;13107;51.304;6.866;2023-04-24T13:00:20;8.05;;;1.30;;
25127;SDS011;13107;51.304;6.866;2023-04-24T13:04:22;6.43;;;1.10;;
25127;SDS011;13107;51.304;6.866;2023-04-24T13:08:23;5.25;;;0.73;;
25127;SDS011;13107;51.304;6.866;2023-04-24T13:12:25;7.20;;;1.20;;
25127;SDS011;13107;51.304;6.866;2023-04-24T13:16:27;5.40;;;1.10;;
25127;SDS011;13107;51.304;6.866;2023-04-24T13:20:29;3.00;;;1.00;;
25127;SDS011;13107;51.304;6.866;2023-04-24T13:24:31;3.78;;;0.80;;
25127;SDS011;13107;51.304;6.866;2023-04-24T13:28:33;4.62;;;1.10;;
25127;SDS011;13107;51.304;6.866;2023-04-24T13:32:35;2.60;;;0.70;;
25127;SDS011;13107;51.304;6.866;2023-04-24T13:36:37;3.03;;;0.85;;
25127;SDS011;13107;51.304;6.866;2023-04-24T13:40:39;2.33;;;0.85;;
25127;SDS011;13107;51.304;6.866;2023-04-24T13:44:41;4.40;;;0.70;;
25127;SDS011;13107;51.304;6.866;2023-04-24T13:48:43;3.15;;;0.70;;
25127;SDS011;13107;51.304;6.866;2023-04-24T13:52:45;2.15;;;0.95;;
25127;SDS011;13107;51.304;6.866;2023-04-24T13:56:46;4.50;;;1.05;;
25127;SDS011;13107;51.304;6.866;2023-04-24T14:00:48;2.37;;;0.77;;
25127;SDS011;13107;51.304;6.866;2023-04-24T14:04:50;3.67;;;1.30;;
25127;SDS011;13107;51.304;6.866;2023-04-24T14:08:52;11.30;;;1.55;;
25127;SDS011;13107;51.304;6.866;2023-04-24T14:12:54;3.70;;;0.98;;
25127;SDS011;13107;51.304;6.866;2023-04-24T14:16:55;2.28;;;0.80;;
25127;SDS011;13107;51.304;6.866;2023-04-24T14:20:58;2.90;;;0.75;;
25127;SDS011;13107;51.304;6.866;2023-04-24T14:25:00;5.15;;;1.12;;
25127;SDS011;13107;51.304;6.866;2023-04-24T14:29:01;5.70;;;0.90;;
25127;SDS011;13107;51.304;6.866;2023-04-24T14:33:23;4.53;;;1.10;;
25127;SDS011;13107;51.304;6.866;2023-04-24T14:37:25;3.85;;;0.70;;
25127;SDS011;13107;51.304;6.866;2023-04-24T14:41:27;2.97;;;0.65;;
25127;SDS011;13107;51.304;6.866;2023-04-24T14:45:28;3.58;;;0.80;;
25127;SDS011;13107;51.304;6.866;2023-04-24T14:49:30;3.42;;;0.80;;
25127;SDS011;13107;51.304;6.866;2023-04-24T14:53:32;3.97;;;1.40;;
25127;SDS011;13107;51.304;6.866;2023-04-24T14:57:34;3.62;;;1.25;;
25127;SDS011;13107;51.304;6.866;2023-04-24T15:01:37;1.75;;;0.68;;
25127;SDS011;13107;51.304;6.866;2023-04-24T15:05:38;4.30;;;1.17;;
25127;SDS011;13107;51.304;6.866;2023-04-24T15:09:40;3.08;;;1.00;;
25127;SDS011;13107;51.304;6.866;2023-04-24T15:13:42;2.95;;;1.00;;
25127;SDS011;13107;51.304;6.866;2023-04-24T15:17:46;2.58;;;0.90;;
25127;SDS011;13107;51.304;6.866;2023-04-24T15:21:48;5.28;;;1.00;;
25127;SDS011;13107;51.304;6.866;2023-04-24T15:25:50;2.05;;;0.98;;
25127;SDS011;13107;51.304;6.866;2023-04-24T15:29:51;3.10;;;1.00;;
25127;SDS011;13107;51.304;6.866;2023-04-24T15:33:54;2.80;;;1.30;;
25127;SDS011;13107;51.304;6.866;2023-04-24T15:37:56;5.12;;;1.00;;
25127;SDS011;13107;51.304;6.866;2023-04-24T15:41:58;2.22;;;1.00;;
25127;SDS011;13107;51.304;6.866;2023-04-24T15:46:01;3.10;;;1.00;;
25127;SDS011;13107;51.304;6.866;2023-04-24T15:50:05;4.40;;;0.85;;
25127;SDS011;13107;51.304;6.866;2023-04-24T15:54:09;4.03;;;1.10;;
25127;SDS011;13107;51.304;6.866;2023-04-24T15:58:11;5.65;;;1.80;;
25127;SDS011;13107;51.304;6.866;2023-04-24T16:02:13;3.28;;;1.35;;
25127;SDS011;13107;51.304;6.866;2023-04-24T16:06:21;5.03;;;1.05;;
25127;SDS011;13107;51.304;6.866;2023-04-24T16:10:23;4.00;;;0.88;;
25127;SDS011;13107;51.304;6.866;2023-04-24T16:14:26;5.72;;;1.30;;
25127;SDS011;13107;51.304;6.866;2023-04-24T16:18:27;5.18;;;1.10;;
25127;SDS011;13107;51.304;6.866;2023-04-24T16:22:29;3.87;;;1.33;;
25127;SDS011;13107;51.304;6.866;2023-04-24T16:26:31;4.32;;;1.48;;
25127;SDS011;13107;51.304;6.866;2023-04-24T16:30:33;6.07;;;1.48;;
25127;SDS011;13107;51.304;6.866;2023-04-24T16:34:34;3.08;;;1.20;;
25127;SDS011;13107;51.304;6.866;2023-04-24T16:38:37;3.67;;;1.40;;
25127;SDS011;13107;51.304;6.866;2023-04-24T16:42:39;2.97;;;1.45;;
25127;SDS011;13107;51.304;6.866;2023-04-24T16:46:41;5.00;;;1.50;;
25127;SDS011;13107;51.304;6.866;2023-04-24T16:50:42;3.78;;;1.27;;
25127;SDS011;13107;51.304;6.866;2023-04-24T16:54:46;3.58;;;1.20;;
25127;SDS011;13107;51.304;6.866;2023-04-24T16:58:47;5.53;;;1.20;;
25127;SDS011;13107;51.304;6.866;2023-04-24T17:02:50;2.78;;;1.15;;
25127;SDS011;13107;51.304;6.866;2023-04-24T17:06:52;2.60;;;0.93;;
25127;SDS011;13107;51.304;6.866;2023-04-24T17:10:54;2.92;;;1.20;;
25127;SDS011;13107;51.304;6.866;2023-04-24T17:14:56;4.37;;;1.40;;
25127;SDS011;13107;51.304;6.866;2023-04-24T17:18:57;3.85;;;1.20;;
25127;SDS011;13107;51.304;6.866;2023-04-24T17:22:59;4.22;;;1.08;;
25127;SDS011;13107;51.304;6.866;2023-04-24T17:27:01;4.37;;;1.20;;
25127;SDS011;13107;51.304;6.866;2023-04-24T17:31:15;5.22;;;1.10;;
25127;SDS011;13107;51.304;6.866;2023-04-24T17:35:16;3.75;;;1.52;;
25127;SDS011;13107;51.304;6.866;2023-04-24T17:39:18;3.35;;;1.30;;
25127;SDS011;13107;51.304;6.866;2023-04-24T17:43:20;5.57;;;1.52;;
25127;SDS011;13107;51.304;6.866;2023-04-24T17:47:22;5.57;;;1.80;;
25127;SDS011;13107;51.304;6.866;2023-04-24T17:51:26;4.87;;;1.62;;
25127;SDS011;13107;51.304;6.866;2023-04-24T17:55:28;5.53;;;1.75;;
25127;SDS011;13107;51.304;6.866;2023-04-24T17:59:30;4.25;;;2.00;;
25127;SDS011;13107;51.304;6.866;2023-04-24T18:03:31;5.03;;;1.25;;
25127;SDS011;13107;51.304;6.866;2023-04-24T18:07:33;3.45;;;1.15;;
25127;SDS011;13107;51.304;6.866;2023-04-24T18:11:35;4.28;;;1.30;;
25127;SDS011;13107;51.304;6.866;2023-04-24T18:15:36;6.18;;;1.35;;
25127;SDS011;13107;51.304;6.866;2023-04-24T18:19:42;6.05;;;1.45;;
25127;SDS011;13107;51.304;6.866;2023-04-24T18:23:43;5.03;;;1.30;;
25127;SDS011;13107;51.304;6.866;2023-04-24T18:27:46;6.28;;;1.37;;
25127;SDS011;13107;51.304;6.866;2023-04-24T18:31:47;3.70;;;1.40;;
25127;SDS011;13107;51.304;6.866;2023-04-24T18:35:50;3.35;;;1.40;;
25127;SDS011;13107;51.304;6.866;2023-04-24T18:39:52;5.78;;;1.87;;
25127;SDS011;13107;51.304;6.866;2023-04-24T18:43:55;6.75;;;2.65;;
25127;SDS011;13107;51.304;6.866;2023-04-24T18:47:59;6.60;;;2.17;;
25127;SDS011;13107;51.304;6.866;2023-04-24T18:52:01;7.62;;;2.20;;
25127;SDS011;13107;51.304;6.866;2023-04-24T18:56:02;6.15;;;1.95;;
25127;SDS011;13107;51.304;6.866;2023-04-24T19:00:04;6.47;;;2.00;;
25127;SDS011;13107;51.304;6.866;2023-04-24T19:04:07;6.72;;;2.05;;
25127;SDS011;13107;51.304;6.866;2023-04-24T19:08:08;7.47;;;2.20;;
25127;SDS011;13107;51.304;6.866;2023-04-24T19:12:10;5.82;;;1.70;;
25127;SDS011;13107;51.304;6.866;2023-04-24T19:16:12;6.68;;;1.83;;
25127;SDS011;13107;51.304;6.866;2023-04-24T19:20:14;6.68;;;1.95;;
25127;SDS011;13107;51.304;6.866;2023-04-24T19:24:16;6.53;;;1.87;;
25127;SDS011;13107;51.304;6.866;2023-04-24T19:28:19;6.50;;;2.50;;
25127;SDS011;13107;51.304;6.866;2023-04-24T19:32:20;8.65;;;2.30;;
25127;SDS011;13107;51.304;6.866;2023-04-24T19:36:22;5.85;;;2.12;;
25127;SDS011;13107;51.304;6.866;2023-04-24T19:40:24;5.40;;;2.03;;
25127;SDS011;13107;51.304;6.866;2023-04-24T19:44:26;8.25;;;2.00;;
25127;SDS011;13107;51.304;6.866;2023-04-24T19:48:28;7.75;;;2.97;;
25127;SDS011;13107;51.304;6.866;2023-04-24T19:52:32;8.95;;;2.65;;
25127;SDS011;13107;51.304;6.866;2023-04-24T19:56:34;8.50;;;2.58;;
25127;SDS011;13107;51.304;6.866;2023-04-24T20:00:35;8.90;;;2.30;;
25127;SDS011;13107;51.304;6.866;2023-04-24T20:04:37;8.65;;;2.60;;
25127;SDS011;13107;51.304;6.866;2023-04-24T20:08:39;9.43;;;2.20;;
25127;SDS011;13107;51.304;6.866;2023-04-24T20:12:42;11.38;;;2.62;;
25127;SDS011;13107;51.304;6.866;2023-04-24T20:16:44;6.95;;;2.40;;
25127;SDS011;13107;51.304;6.866;2023-04-24T20:20:46;8.45;;;2.50;;
25127;SDS011;13107;51.304;6.866;2023-04-24T20:24:47;9.95;;;3.17;;
25127;SDS011;13107;51.304;6.866;2023-04-24T20:28:50;12.13;;;3.15;;
25127;SDS011;13107;51.304;6.866;2023-04-24T20:32:52;7.65;;;2.92;;
25127;SDS011;13107;51.304;6.866;2023-04-24T20:36:54;9.98;;;2.42;;
25127;SDS011;13107;51.304;6.866;2023-04-24T20:40:59;9.00;;;2.20;;
25127;SDS011;13107;51.304;6.866;2023-04-24T20:45:01;11.70;;;3.37;;
25127;SDS011;13107;51.304;6.866;2023-04-24T20:49:03;8.55;;;2.58;;
25127;SDS011;13107;51.304;6.866;2023-04-24T20:53:05;11.95;;;3.40;;
25127;SDS011;13107;51.304;6.866;2023-04-24T20:57:07;8.50;;;3.30;;
25127;SDS011;13107;51.304;6.866;2023-04-24T21:01:09;9.63;;;3.03;;
25127;SDS011;13107;51.304;6.866;2023-04-24T21:05:11;9.45;;;3.80;;
25127;SDS011;13107;51.304;6.866;2023-04-24T21:09:13;10.23;;;3.22;;
25127;SDS011;13107;51.304;6.866;2023-04-24T21:13:15;8.95;;;2.90;;
25127;SDS011;13107;51.304;6.866;2023-04-24T21:17:17;8.93;;;3.33;;
25127;SDS011;13107;51.304;6.866;2023-04-24T21:21:18;10.23;;;3.62;;
25127;SDS011;13107;51.304;6.866;2023-04-24T21:25:20;11.15;;;3.65;;
25127;SDS011;13107;51.304;6.866;2023-04-24T21:29:22;8.82;;;3.05;;
25127;SDS011;13107;51.304;6.866;2023-04-24T21:33:24;11.55;;;3.72;;
25127;SDS011;13107;51.304;6.866;2023-04-24T21:37:25;10.43;;;3.67;;
25127;SDS011;13107;51.304;6.866;2023-04-24T21:41:27;11.38;;;3.70;;
25127;SDS011;13107;51.304;6.866;2023-04-24T21:45:29;12.35;;;3.90;;
25127;SDS011;13107;51.304;6.866;2023-04-24T21:49:31;10.63;;;3.92;;
25127;SDS011;13107;51.304;6.866;2023-04-24T21:53:33;11.98;;;3.60;;
25127;SDS011;13107;51.304;6.866;2023-04-24T21:57:34;11.75;;;4.18;;
25127;SDS011;13107;51.304;6.866;2023-04-24T22:01:36;11.12;;;4.28;;
25127;SDS011;13107;51.304;6.866;2023-04-24T22:05:38;19.15;;;4.57;;
25127;SDS011;13107;51.304;6.866;2023-04-24T22:09:40;12.95;;;4.22;;
25127;SDS011;13107;51.304;6.866;2023-04-24T22:13:41;12.02;;;4.20;;
25127;SDS011;13107;51.304;6.866;2023-04-24T22:17:43;9.70;;;3.72;;
25127;SDS011;13107;51.304;6.866;2023-04-24T22:21:46;9.85;;;4.22;;
25127;SDS011;13107;51.304;6.866;2023-04-24T22:25:47;10.25;;;3.83;;
25127;SDS011;13107;51.304;6.866;2023-04-24T22:29:49;11.60;;;4.20;;
25127;SDS011;13107;51.304;6.866;2023-04-24T22:33:51;11.85;;;4.37;;
25127;SDS011;13107;51.304;6.866;2023-04-24T22:37:53;10.93;;;4.03;;
25127;SDS011;13107;51.304;6.866;2023-04-24T22:41:56;12.52;;;4.20;;
25127;SDS011;13107;51.304;6.866;2023-04-24T22:45:57;15.77;;;5.00;;
25127;SDS011;13107;51.304;6.866;2023-04-24T22:49:59;14.65;;;4.47;;
25127;SDS011;13107;51.304;6.866;2023-04-24T22:54:02;14.18;;;5.07;;
25127;SDS011;13107;51.304;6.866;2023-04-24T22:58:04;11.43;;;4.03;;
25127;SDS011;13107;51.304;6.866;2023-04-24T23:02:07;14.00;;;4.62;;
25127;SDS011;13107;51.304;6.866;2023-04-24T23:06:09;11.88;;;3.95;;
25127;SDS011;13107;51.304;6.866;2023-04-24T23:10:10;10.10;;;5.10;;
25127;SDS011;13107;51.304;6.866;2023-04-24T23:14:12;18.70;;;4.85;;
25127;SDS011;13107;51.304;6.866;2023-04-24T23:18:14;14.82;;;4.82;;
25127;SDS011;13107;51.304;6.866;2023-04-24T23:22:15;12.93;;;5.28;;
25127;SDS011;13107;51.304;6.866;2023-04-24T23:26:17;14.20;;;5.12;;
25127;SDS011;13107;51.304;6.866;2023-04-24T23:30:19;15.30;;;4.85;;
25127;SDS011;13107;51.304;6.866;2023-04-24T23:34:21;15.30;;;4.75;;
25127;SDS011;13107;51.304;6.866;2023-04-24T23:38:22;14.45;;;4.72;;
25127;SDS011;13107;51.304;6.866;2023-04-24T23:42:24;18.30;;;5.22;;
25127;SDS011;13107;51.304;6.866;2023-04-24T23:46:26;15.25;;;4.90;;
25127;SDS011;13107;51.304;6.866;2023-04-24T23:50:28;17.62;;;5.05;;
25127;SDS011;13107;51.304;6.866;2023-04-24T23:54:29;14.77;;;4.70;;
25127;SDS011;13107;51.304;6.866;2023-04-24T23:58:31;17.12;;;4.70;;
